This is the latest recevied weather packets stored in our database for station/object DH6SC. If no packets are shown the sender has not sent any weather packets the latest 10 day(s).
| Time | Temp. | Humidity | Pressure | Rain* | Wind** | Luminosity | Snow |
|---|---|---|---|---|---|---|---|
| 1777161001 | 18.89° C | 66% | 1022.5 hPa | - | - | - | - |
| 1777154988 | 19.44° C | 65% | 1022 hPa | - | - | - | - |
| 1777145995 | 20° C | 65% | 1021 hPa | - | - | - | - |
| 1777144796 | 20° C | 65% | 1020.7 hPa | - | - | - | - |
| 1777143601 | 20° C | 65% | 1020.5 hPa | - | - | - | - |
| 1777140002 | 20° C | 64% | 1019.6 hPa | - | - | - | - |
| 1777139401 | 20° C | 64% | 1019.6 hPa | - | - | - | - |
| 1777138196 | 20° C | 64% | 1019.4 hPa | - | - | - | - |
| 1777137002 | 20° C | 64% | 1019.4 hPa | - | - | - | - |
| 1777136389 | 20° C | 64% | 1019.4 hPa | - | - | - | - |
| 1777130402 | 19.44° C | 64% | 1019.3 hPa | - | - | - | - |
| 1777129200 | 19.44° C | 64% | 1019.4 hPa | - | - | - | - |
| 1777124384 | 18.89° C | 64% | 1019.6 hPa | - | - | - | - |
| 1777123789 | 18.89° C | 64% | 1019.6 hPa | - | - | - | - |
| 1777114792 | 17.78° C | 64% | 1020.8 hPa | - | - | - | - |
| 1777109997 | 17.22° C | 65% | 1021.4 hPa | - | - | - | - |
| 1777106997 | 17.22° C | 65% | 1021.6 hPa | - | - | - | - |
| 1777105190 | 17.22° C | 65% | 1021.6 hPa | - | - | - | - |
| 1777103401 | 17.22° C | 66% | 1021.6 hPa | - | - | - | - |
| 1777101001 | 17.22° C | 66% | 1021.8 hPa | - | - | - | - |
| 1777092595 | 17.22° C | 66% | 1021.8 hPa | - | - | - | - |
| 1777090188 | 17.22° C | 66% | 1021.5 hPa | - | - | - | - |
| 1777081801 | 17.78° C | 66% | 1021.7 hPa | - | - | - | - |
| 1777078781 | 18.33° C | 66% | 1021.8 hPa | - | - | - | - |
| 1777072204 | 18.89° C | 66% | 1021.9 hPa | - | - | - | - |
* Rain since midnight (hover to see other rain measurements)
** Current wind speed in m/s (hover to see current wind gust speed)